Maran Canopus — SXUQ — position and weather

sailwx.info

Track history (hours):
 
Tides and Currents Weather Stations Pressure Air Temp Water Temp Dewpoint Dewpoint Depression Visibility Wind Speed Wind Dir Waves Ship Positions

Maran Canopus

Last reported at 2015-Jul-28 19:12 UTC. Time now 2015-Jul-30 10:07 UTC.
Position N 01°16' E 104°14'.

Length 333 m; draft 20.6 m.

Type: Tanker. MMSI: 240677000.

Date/timePositionNaut miles runAvg speedWind from/ knotsBaromVisibWave heightAir tempDewpointWater temp
2015-Jul-28 19:12N 01°16' E 104°14'811.9
2015-Jul-28 18:31N 01°15' E 104°06'9 9.7
2015-Jul-28 17:33N 01°13' E 103°57'8 7.6
2015-Jul-28 16:33N 01°11' E 103°50'14511.1
2015-Jul-28 03:30N 02°13' E 101°39'2010.2
2015-Jul-28 01:33N 02°30' E 101°30'2311.3
2015-Jul-27 23:33N 02°42' E 101°10'2311.2
2015-Jul-27 21:33N 02°52' E 100°50'2211.1
2015-Jul-27 19:32N 03°08' E 100°35'  
Track history (hours):
 
Tides and Currents Weather Stations Pressure Air Temp Water Temp Dewpoint Dewpoint Depression Visibility Wind Speed Wind Dir Waves Ship Positions

Maran Canopus

Last reported at 2015-Jul-28 19:12 UTC. Time now 2015-Jul-30 10:07 UTC.
Position N 01°16' E 104°14'.

Length 333 m; draft 20.6 m.

Type: Tanker. MMSI: 240677000.

Date/timePositionNaut miles runAvg speedWind from/ knotsBaromVisibWave heightAir tempDewpointWater temp
2015-Jul-28 19:12N 01°16' E 104°14'811.9
2015-Jul-28 18:31N 01°15' E 104°06'9 9.7
2015-Jul-28 17:33N 01°13' E 103°57'8 7.6
2015-Jul-28 16:33N 01°11' E 103°50'14511.1
2015-Jul-28 03:30N 02°13' E 101°39'2010.2
2015-Jul-28 01:33N 02°30' E 101°30'2311.3
2015-Jul-27 23:33N 02°42' E 101°10'2311.2
2015-Jul-27 21:33N 02°52' E 100°50'2211.1
2015-Jul-27 19:32N 03°08' E 100°35'  

Dump ship's entire track history